AFR669 HDAM-LFPG
Flight info
| Callsign | AFR669 |
|---|---|
| Flight time | N/A |
| Altitude | 38000 |
| Route | MANDA1P MANDA UR775 SB UV790 ULONI/N0489F390 G650 RASKA/N0486F400 T513 EGMEG/N0489F390 G660 JDW/N0487F400 M686 OTEMO T55 KUNKI P751 METRU DCT OLGAT DCT AIOSA DCT IBENI DCT IBUPU DCT TZO DCT PUNSA/N0492F380 DCT UNKIR DCT GIVRI DCT TINIL |
| Aircraft | A359/H-SDE2E3GHIJ3J4J5LM1ORWXY/LB1D1 |
Departure
| Time | 2026-05-06 03:03 |
|---|---|
| Airport | Djibouti-Ambouli Airport (HDAM) |
Arrival
| Time | N/A |
|---|---|
| Airport | Charles de Gaulle International Airport (LFPG) |
| Time | Latitude | Longitude | Altitude | Speed | Heading |
|---|---|---|---|---|---|
| 2026-05-06 02:30 | 11.55137 | 43.15003 | 59 ft | 0 kts | 1° |
| 2026-05-06 02:56 | 11.55130 | 43.15003 | 50 ft | 4 kts | 1° |
| 2026-05-06 02:57 | 11.55103 | 43.15003 | 49 ft | 4 kts | 1° |
| 2026-05-06 02:57 | 11.55076 | 43.15002 | 51 ft | 4 kts | 358° |
| 2026-05-06 02:57 | 11.55049 | 43.15004 | 51 ft | 4 kts | 352° |
| 2026-05-06 02:57 | 11.55022 | 43.15009 | 51 ft | 4 kts | 346° |
| 2026-05-06 02:58 | 11.54996 | 43.15016 | 51 ft | 4 kts | 342° |
| 2026-05-06 02:58 | 11.54980 | 43.15021 | 51 ft | 1 kts | 342° |
| 2026-05-06 02:58 | 11.54977 | 43.15022 | 51 ft | 0 kts | 342° |
| 2026-05-06 03:00 | 11.54978 | 43.15022 | 51 ft | 1 kts | 342° |
| 2026-05-06 03:00 | 11.55009 | 43.14967 | 55 ft | 12 kts | 275° |
| 2026-05-06 03:00 | 11.55016 | 43.14874 | 54 ft | 14 kts | 272° |
| 2026-05-06 03:01 | 11.55011 | 43.14772 | 56 ft | 15 kts | 269° |
| 2026-05-06 03:01 | 11.55013 | 43.14660 | 56 ft | 17 kts | 271° |
| 2026-05-06 03:01 | 11.54966 | 43.14611 | 56 ft | 10 kts | 188° |
| 2026-05-06 03:01 | 11.54885 | 43.14608 | 57 ft | 13 kts | 180° |
| 2026-05-06 03:02 | 11.54785 | 43.14611 | 57 ft | 15 kts | 164° |
| 2026-05-06 03:02 | 11.54754 | 43.14681 | 61 ft | 7 kts | 91° |
| 2026-05-06 03:02 | 11.54752 | 43.14847 | 61 ft | 58 kts | 90° |
| 2026-05-06 03:02 | 11.54741 | 43.15531 | 50 ft | 132 kts | 90° |
| 2026-05-06 03:03 | 11.54728 | 43.16666 | 304 ft | 171 kts | 92° |
| 2026-05-06 03:03 | 11.54684 | 43.17912 | 983 ft | 185 kts | 94° |
| 2026-05-06 03:03 | 11.54874 | 43.19298 | 1541 ft | 209 kts | 69° |
| 2026-05-06 03:03 | 11.55808 | 43.20413 | 2432 ft | 212 kts | 31° |
| 2026-05-06 03:04 | 11.57229 | 43.20721 | 3411 ft | 209 kts | 0° |
| 2026-05-06 03:04 | 11.58671 | 43.20756 | 4379 ft | 205 kts | 3° |
| 2026-05-06 03:04 | 11.60070 | 43.20787 | 5341 ft | 197 kts | 3° |
| 2026-05-06 03:04 | 11.61406 | 43.20792 | 6314 ft | 186 kts | 1° |
| 2026-05-06 03:05 | 11.62657 | 43.20676 | 7033 ft | 187 kts | 346° |
| 2026-05-06 03:05 | 11.63881 | 43.20025 | 7350 ft | 209 kts | 335° |
| 2026-05-06 03:05 | 11.65337 | 43.19632 | 7600 ft | 226 kts | 358° |
| 2026-05-06 03:05 | 11.66977 | 43.19574 | 7848 ft | 248 kts | 3° |
| 2026-05-06 03:06 | 11.68786 | 43.19592 | 8137 ft | 271 kts | 4° |
| 2026-05-06 03:06 | 11.70718 | 43.19620 | 8653 ft | 283 kts | 4° |
| 2026-05-06 03:06 | 11.72709 | 43.19647 | 9359 ft | 288 kts | 4° |
| 2026-05-06 03:06 | 11.74730 | 43.19674 | 10073 ft | 293 kts | 5° |
| 2026-05-06 03:07 | 11.76830 | 43.19705 | 10450 ft | 311 kts | 4° |
| 2026-05-06 03:07 | 11.79061 | 43.19726 | 10746 ft | 330 kts | 2° |
| 2026-05-06 03:07 | 11.81395 | 43.19384 | 11008 ft | 353 kts | 345° |
| 2026-05-06 03:07 | 11.83591 | 43.18120 | 11382 ft | 371 kts | 321° |
| 2026-05-06 03:08 | 11.85367 | 43.16169 | 11976 ft | 378 kts | 312° |
| 2026-05-06 03:08 | 11.87036 | 43.14085 | 12632 ft | 380 kts | 311° |
| 2026-05-06 03:08 | 11.88711 | 43.11993 | 13309 ft | 381 kts | 312° |
| 2026-05-06 03:08 | 11.90408 | 43.09897 | 13954 ft | 383 kts | 312° |
| 2026-05-06 03:09 | 11.92099 | 43.07820 | 14493 ft | 387 kts | 312° |
| 2026-05-06 03:09 | 11.93944 | 43.05811 | 15038 ft | 388 kts | 320° |
| 2026-05-06 03:09 | 11.95395 | 43.04679 | 15406 ft | 388 kts | 329° |
| 2026-05-06 03:09 | 11.98621 | 43.03098 | 16131 ft | 390 kts | 340° |
| 2026-05-06 03:10 | 12.01173 | 43.02085 | 16650 ft | 394 kts | 340° |
| 2026-05-06 03:10 | 12.03739 | 43.01078 | 17164 ft | 397 kts | 340° |
| 2026-05-06 03:10 | 12.06329 | 43.00053 | 17701 ft | 401 kts | 339° |
| 2026-05-06 03:10 | 12.08946 | 42.99012 | 18195 ft | 404 kts | 339° |
| 2026-05-06 03:11 | 12.11579 | 42.97962 | 18643 ft | 408 kts | 339° |
| 2026-05-06 03:11 | 12.14240 | 42.96898 | 19080 ft | 411 kts | 339° |
| 2026-05-06 03:11 | 12.16911 | 42.95829 | 19515 ft | 415 kts | 339° |
| 2026-05-06 03:11 | 12.19615 | 42.94746 | 19945 ft | 418 kts | 339° |
| 2026-05-06 03:12 | 12.22338 | 42.93656 | 20388 ft | 422 kts | 339° |
| 2026-05-06 03:12 | 12.25077 | 42.92558 | 20797 ft | 425 kts | 339° |
| 2026-05-06 03:12 | 12.26908 | 42.91824 | 21076 ft | 427 kts | 339° |
| 2026-05-06 03:12 | 12.30635 | 42.90331 | 21649 ft | 432 kts | 339° |
| 2026-05-06 03:13 | 12.33408 | 42.89220 | 22049 ft | 435 kts | 339° |
| 2026-05-06 03:13 | 12.35318 | 42.88454 | 22320 ft | 437 kts | 339° |
| 2026-05-06 03:13 | 12.38161 | 42.87314 | 22722 ft | 441 kts | 339° |
| 2026-05-06 03:13 | 12.41966 | 42.85788 | 23238 ft | 445 kts | 339° |
| 2026-05-06 03:14 | 12.44857 | 42.84629 | 23594 ft | 448 kts | 339° |
| 2026-05-06 03:14 | 12.47772 | 42.83459 | 23923 ft | 451 kts | 339° |
| 2026-05-06 03:14 | 12.50694 | 42.82284 | 24293 ft | 452 kts | 339° |
| 2026-05-06 03:14 | 12.53631 | 42.81105 | 24660 ft | 455 kts | 339° |
| 2026-05-06 03:15 | 12.56585 | 42.79918 | 25040 ft | 457 kts | 339° |
| 2026-05-06 03:15 | 12.59550 | 42.78726 | 25447 ft | 459 kts | 339° |
| 2026-05-06 03:15 | 12.62559 | 42.77589 | 25882 ft | 461 kts | 341° |
| 2026-05-06 03:15 | 12.65620 | 42.76567 | 26332 ft | 463 kts | 342° |
| 2026-05-06 03:16 | 12.68710 | 42.75596 | 26772 ft | 466 kts | 343° |
| 2026-05-06 03:16 | 12.71826 | 42.74629 | 27243 ft | 469 kts | 342° |
| 2026-05-06 03:16 | 12.74918 | 42.73660 | 27717 ft | 471 kts | 342° |
| 2026-05-06 03:16 | 12.75977 | 42.73325 | 27878 ft | 472 kts | 342° |
| 2026-05-06 03:17 | 12.81219 | 42.71636 | 28646 ft | 477 kts | 341° |
| 2026-05-06 03:17 | 12.83366 | 42.70935 | 28936 ft | 479 kts | 341° |
| 2026-05-06 03:17 | 12.87586 | 42.69554 | 29502 ft | 484 kts | 341° |
| 2026-05-06 03:17 | 12.90811 | 42.68495 | 29927 ft | 487 kts | 341° |
| 2026-05-06 03:18 | 12.94040 | 42.67435 | 30277 ft | 489 kts | 341° |
| 2026-05-06 03:18 | 12.97300 | 42.66365 | 30638 ft | 492 kts | 341° |
| 2026-05-06 03:18 | 13.00568 | 42.65292 | 30981 ft | 494 kts | 341° |
| 2026-05-06 03:18 | 13.03827 | 42.64160 | 31303 ft | 496 kts | 337° |
| 2026-05-06 03:19 | 13.06955 | 42.62640 | 31633 ft | 497 kts | 329° |
| 2026-05-06 03:19 | 13.08891 | 42.61377 | 31841 ft | 498 kts | 323° |
| 2026-05-06 03:19 | 13.12632 | 42.58544 | 32242 ft | 501 kts | 321° |
| 2026-05-06 03:19 | 13.15348 | 42.56364 | 32525 ft | 503 kts | 320° |
| 2026-05-06 03:20 | 13.20827 | 42.51861 | 33234 ft | 504 kts | 320° |
| 2026-05-06 03:20 | 13.23558 | 42.49614 | 33680 ft | 502 kts | 320° |
| 2026-05-06 03:20 | 13.26289 | 42.47376 | 34085 ft | 501 kts | 320° |
| 2026-05-06 03:21 | 13.29020 | 42.45147 | 34430 ft | 500 kts | 320° |
| 2026-05-06 03:21 | 13.31750 | 42.42924 | 34766 ft | 500 kts | 320° |
| 2026-05-06 03:21 | 13.34476 | 42.40707 | 35097 ft | 500 kts | 320° |
| 2026-05-06 03:21 | 13.37197 | 42.38496 | 35441 ft | 499 kts | 320° |
| 2026-05-06 03:22 | 13.39919 | 42.36283 | 35774 ft | 498 kts | 320° |
| 2026-05-06 03:22 | 13.41726 | 42.34814 | 35985 ft | 498 kts | 320° |
| 2026-05-06 03:22 | 13.45326 | 42.31887 | 36401 ft | 498 kts | 320° |
| 2026-05-06 03:22 | 13.47129 | 42.30420 | 36607 ft | 497 kts | 320° |
| 2026-05-06 03:23 | 13.50753 | 42.27470 | 37034 ft | 497 kts | 320° |
| 2026-05-06 03:23 | 13.53463 | 42.25263 | 37348 ft | 496 kts | 320° |
| 2026-05-06 03:23 | 13.56168 | 42.23060 | 37663 ft | 496 kts | 320° |
| 2026-05-06 03:23 | 13.58876 | 42.20853 | 37851 ft | 497 kts | 320° |
| 2026-05-06 03:24 | 13.64279 | 42.16449 | 37859 ft | 495 kts | 320° |
| 2026-05-06 03:24 | 13.69671 | 42.12046 | 37859 ft | 495 kts | 320° |
| 2026-05-06 03:25 | 13.74147 | 42.08356 | 37858 ft | 495 kts | 320° |
| 2026-05-06 03:25 | 13.80397 | 42.03198 | 37858 ft | 495 kts | 320° |
| 2026-05-06 03:26 | 13.85775 | 41.98762 | 37859 ft | 495 kts | 320° |
| 2026-05-06 03:26 | 13.91156 | 41.94323 | 37862 ft | 495 kts | 320° |
| 2026-05-06 03:27 | 13.95632 | 41.90632 | 37860 ft | 496 kts | 320° |
| 2026-05-06 03:27 | 14.01011 | 41.86192 | 37860 ft | 496 kts | 320° |
| 2026-05-06 03:28 | 14.07300 | 41.80995 | 37858 ft | 496 kts | 320° |
| 2026-05-06 03:28 | 14.11775 | 41.77299 | 37861 ft | 496 kts | 320° |
| 2026-05-06 03:29 | 14.18064 | 41.72098 | 37861 ft | 496 kts | 320° |
| 2026-05-06 03:29 | 14.23411 | 41.67679 | 37859 ft | 496 kts | 320° |
| 2026-05-06 03:30 | 14.28793 | 41.63222 | 37860 ft | 496 kts | 320° |
| 2026-05-06 03:30 | 14.34173 | 41.58769 | 37863 ft | 496 kts | 320° |
| 2026-05-06 03:31 | 14.39559 | 41.54309 | 37869 ft | 496 kts | 320° |
| 2026-05-06 03:31 | 14.44941 | 41.49846 | 37869 ft | 496 kts | 319° |
| 2026-05-06 03:32 | 14.50315 | 41.45380 | 37870 ft | 496 kts | 319° |
| 2026-05-06 03:32 | 14.55685 | 41.40915 | 37861 ft | 496 kts | 319° |
| 2026-05-06 03:33 | 14.61060 | 41.36452 | 37866 ft | 495 kts | 319° |
| 2026-05-06 03:33 | 14.66427 | 41.31996 | 37871 ft | 495 kts | 319° |
| 2026-05-06 03:34 | 14.71797 | 41.27526 | 37869 ft | 495 kts | 319° |
| 2026-05-06 03:34 | 14.77157 | 41.23054 | 37868 ft | 495 kts | 319° |
| 2026-05-06 03:35 | 14.82516 | 41.18588 | 37866 ft | 495 kts | 319° |
| 2026-05-06 03:35 | 14.87876 | 41.14118 | 37867 ft | 495 kts | 319° |
| 2026-05-06 03:36 | 14.93232 | 41.09654 | 37870 ft | 494 kts | 319° |
| 2026-05-06 03:36 | 14.98589 | 41.05190 | 37870 ft | 494 kts | 319° |
| 2026-05-06 03:37 | 15.03919 | 41.00741 | 37865 ft | 494 kts | 319° |
| 2026-05-06 03:37 | 15.09268 | 40.96266 | 37874 ft | 494 kts | 319° |
| 2026-05-06 03:38 | 15.14612 | 40.91787 | 37866 ft | 494 kts | 319° |
| 2026-05-06 03:38 | 15.19951 | 40.87310 | 37867 ft | 493 kts | 319° |
| 2026-05-06 03:39 | 15.24384 | 40.83592 | 37869 ft | 493 kts | 319° |
| 2026-05-06 03:39 | 15.30570 | 40.78401 | 37879 ft | 492 kts | 319° |
| 2026-05-06 03:40 | 15.35886 | 40.73937 | 37867 ft | 491 kts | 319° |
| 2026-05-06 03:40 | 15.39440 | 40.70950 | 37869 ft | 491 kts | 319° |
| 2026-05-06 03:41 | 15.45605 | 40.65766 | 37877 ft | 491 kts | 319° |
| 2026-05-06 03:41 | 15.50902 | 40.61309 | 37878 ft | 490 kts | 319° |
| 2026-05-06 03:42 | 15.55342 | 40.57570 | 37870 ft | 490 kts | 319° |
| 2026-05-06 03:42 | 15.61498 | 40.52385 | 37871 ft | 490 kts | 319° |
| 2026-05-06 03:43 | 15.66790 | 40.47925 | 37869 ft | 490 kts | 319° |
| 2026-05-06 03:43 | 15.71199 | 40.44212 | 37869 ft | 490 kts | 319° |